createdAt,value
2019-03-17T00:00:30.172Z,94650.59
2019-03-17T00:02:58.548Z,94646.45
2019-03-17T00:05:26.909Z,94644.67
2019-03-17T00:07:55.619Z,94645.28
2019-03-17T00:10:25.005Z,94638.45
2019-03-17T00:12:53.368Z,94637.66
2019-03-17T00:15:22.715Z,94644.75
2019-03-17T00:17:51.058Z,94641.05
2019-03-17T00:20:19.436Z,94638.66
2019-03-17T00:22:47.825Z,94647.00
2019-03-17T00:25:16.187Z,94636.89
2019-03-17T00:27:44.536Z,94635.31
2019-03-17T00:32:47.101Z,94634.59
2019-03-17T00:35:15.495Z,94633.66
2019-03-17T00:37:44.812Z,94625.88
2019-03-17T00:40:13.188Z,94626.89
2019-03-17T00:42:41.506Z,94625.63
2019-03-17T00:45:11.515Z,94625.82
2019-03-17T00:47:39.190Z,94628.91
2019-03-17T00:52:41.767Z,94630.03
2019-03-17T00:55:10.135Z,94630.06
2019-03-17T00:57:38.497Z,94626.91
2019-03-17T01:00:09.420Z,94621.73
2019-03-17T01:02:37.776Z,94621.25
2019-03-17T01:07:45.262Z,94615.72
2019-03-17T01:10:13.622Z,94612.08
2019-03-17T01:12:44.766Z,94611.20
2019-03-17T01:17:46.549Z,94603.75
2019-03-17T01:20:14.924Z,94598.84
2019-03-17T01:22:44.156Z,94602.87
2019-03-17T01:27:52.469Z,94598.80
2019-03-17T01:30:20.816Z,94597.13
2019-03-17T01:32:49.148Z,94594.64
2019-03-17T01:35:17.475Z,94598.44
2019-03-17T01:37:45.804Z,94594.91
2019-03-17T01:40:14.154Z,94594.87
2019-03-17T01:42:42.497Z,94594.98
2019-03-17T01:45:10.844Z,94598.44
2019-03-17T01:47:39.209Z,94591.85
2019-03-17T01:52:41.757Z,94581.75
2019-03-17T01:55:10.100Z,94579.34
2019-03-17T02:00:17.730Z,94570.17
2019-03-17T02:02:47.032Z,94567.84
2019-03-17T02:07:49.632Z,94562.86
2019-03-17T02:10:17.981Z,94562.80
2019-03-17T02:12:46.299Z,94556.19
2019-03-17T02:15:14.657Z,94554.19
2019-03-17T02:17:43.000Z,94548.14
2019-03-17T02:20:11.345Z,94549.34
2019-03-17T02:22:39.679Z,94545.23
2019-03-17T02:25:08.042Z,94548.80
2019-03-17T02:27:38.367Z,94544.46
2019-03-17T02:30:07.620Z,94545.36
2019-03-17T02:37:47.716Z,94542.11
2019-03-17T02:40:16.972Z,94539.69
2019-03-17T02:42:45.358Z,94535.43
2019-03-17T02:45:13.738Z,94540.34
2019-03-17T02:47:42.045Z,94534.45
2019-03-17T02:50:10.388Z,94541.61
2019-03-17T02:52:38.718Z,94539.78
2019-03-17T02:55:07.070Z,94537.19
2019-03-17T02:57:35.402Z,94533.84
2019-03-17T03:00:03.912Z,94539.47
2019-03-17T03:02:32.249Z,94537.63
2019-03-17T03:05:00.666Z,94530.72
2019-03-17T03:07:29.917Z,94534.36
2019-03-17T03:09:58.256Z,94535.34
2019-03-17T03:12:26.601Z,94539.17
2019-03-17T03:14:54.980Z,94537.59
2019-03-17T03:19:57.571Z,94537.79
2019-03-17T03:22:26.937Z,94535.98
2019-03-17T03:24:55.314Z,94538.64
2019-03-17T03:27:23.646Z,94536.44
2019-03-17T03:29:52.005Z,94535.14
2019-03-17T03:32:22.340Z,94534.47
2019-03-17T03:34:50.679Z,94530.33
2019-03-17T03:37:19.018Z,94525.61
2019-03-17T03:39:47.359Z,94525.78
2019-03-17T03:42:15.708Z,94516.56
2019-03-17T03:44:44.040Z,94521.28
2019-03-17T03:47:16.749Z,94512.91
2019-03-17T03:49:45.084Z,94520.74
2019-03-17T03:52:13.437Z,94516.78
2019-03-17T03:54:41.774Z,94512.30
2019-03-17T03:57:12.122Z,94512.90
2019-03-17T03:59:40.483Z,94517.41
2019-03-17T04:02:08.814Z,94516.04
2019-03-17T04:04:37.163Z,94512.34
2019-03-17T04:07:06.472Z,94511.39
2019-03-17T04:09:35.769Z,94512.17
2019-03-17T04:12:04.169Z,94515.91
2019-03-17T04:14:33.435Z,94517.95
2019-03-17T04:17:01.792Z,94510.44
2019-03-17T04:19:30.134Z,94514.66
2019-03-17T04:21:59.439Z,94511.98
2019-03-17T04:24:27.773Z,94508.70
2019-03-17T04:26:56.195Z,94504.84
2019-03-17T04:29:24.465Z,94503.67
2019-03-17T04:31:52.857Z,94487.64
2019-03-17T04:34:21.192Z,94491.40
2019-03-17T04:36:50.447Z,94500.41
2019-03-17T04:39:18.780Z,94490.84
2019-03-17T04:41:47.131Z,94486.72
2019-03-17T04:44:20.750Z,94491.52
2019-03-17T04:46:43.803Z,94494.28
2019-03-17T04:51:46.389Z,94494.31
2019-03-17T04:54:14.743Z,94495.19
2019-03-17T04:56:44.061Z,94492.91
2019-03-17T04:59:13.420Z,94495.62
2019-03-17T05:01:41.774Z,94489.37
2019-03-17T05:04:11.376Z,94485.89
2019-03-17T05:06:51.563Z,94480.97
2019-03-17T05:11:49.243Z,94478.46
2019-03-17T05:14:22.980Z,94476.63
2019-03-17T05:16:57.664Z,94478.92
2019-03-17T05:19:26.018Z,94478.41
2019-03-17T05:22:19.968Z,94472.23
2019-03-17T05:27:25.767Z,94478.48
2019-03-17T05:30:21.978Z,94475.55
2019-03-17T05:33:20.746Z,94475.91
2019-03-17T05:35:53.117Z,94471.33
2019-03-17T05:38:22.387Z,94472.42
2019-03-17T05:40:57.534Z,94467.47
2019-03-17T05:43:27.781Z,94471.06
2019-03-17T05:45:59.332Z,94463.34
2019-03-17T05:48:28.589Z,94464.86
2019-03-17T05:50:57.906Z,94463.52
2019-03-17T05:53:27.168Z,94466.55
2019-03-17T05:58:29.750Z,94460.89
2019-03-17T06:00:58.098Z,94455.50
2019-03-17T06:03:26.445Z,94462.93
2019-03-17T06:05:54.796Z,94451.47
2019-03-17T06:08:23.182Z,94451.11
2019-03-17T06:10:51.520Z,94446.77
2019-03-17T06:13:19.874Z,94438.88
2019-03-17T06:15:48.204Z,94443.41
2019-03-17T06:18:16.539Z,94447.25
2019-03-17T06:20:45.819Z,94451.80
2019-03-17T06:23:14.199Z,94456.06
2019-03-17T06:25:42.540Z,94453.85
2019-03-17T06:28:11.788Z,94458.36
2019-03-17T06:30:43.475Z,94464.61
2019-03-17T06:35:49.114Z,94458.25
2019-03-17T06:38:29.449Z,94454.25
2019-03-17T06:40:57.797Z,94458.66
2019-03-17T06:43:43.163Z,94454.48
2019-03-17T06:46:13.468Z,94455.80
2019-03-17T06:48:47.938Z,94461.98
2019-03-17T06:51:29.676Z,94458.45
2019-03-17T06:53:58.066Z,94453.68
2019-03-17T06:56:32.061Z,94451.98
2019-03-17T06:59:00.430Z,94451.47
2019-03-17T07:01:29.670Z,94450.00
2019-03-17T07:03:58.016Z,94450.91
2019-03-17T07:06:26.606Z,94448.48
2019-03-17T07:08:55.896Z,94449.88
2019-03-17T07:11:28.310Z,94456.53
2019-03-17T07:13:57.414Z,94455.43
2019-03-17T07:16:26.670Z,94460.83
2019-03-17T07:18:55.814Z,94458.86
2019-03-17T07:21:25.123Z,94456.87
2019-03-17T07:23:53.494Z,94460.61
2019-03-17T07:26:30.450Z,94461.28
2019-03-17T07:28:58.800Z,94448.92
2019-03-17T07:31:27.160Z,94449.71
2019-03-17T07:34:14.046Z,94448.86
2019-03-17T07:36:47.416Z,94447.23
2019-03-17T07:39:15.804Z,94449.28
2019-03-17T07:41:44.287Z,94447.63
2019-03-17T07:46:51.921Z,94444.69
2019-03-17T07:49:21.206Z,94437.73
2019-03-17T07:54:35.091Z,94429.05
2019-03-17T07:57:02.191Z,94440.34
2019-03-17T08:02:06.862Z,94440.92
2019-03-17T08:07:19.503Z,94459.56
2019-03-17T08:09:52.104Z,94457.16
2019-03-17T08:12:25.882Z,94458.20
2019-03-17T08:14:57.645Z,94456.22
2019-03-17T08:19:59.737Z,94445.34
2019-03-17T08:22:32.650Z,94447.20
2019-03-17T08:25:01.008Z,94444.41
2019-03-17T08:27:34.212Z,94446.04
2019-03-17T08:30:02.573Z,94446.91
2019-03-17T08:35:07.319Z,94443.03
2019-03-17T08:37:46.959Z,94441.12
2019-03-17T08:40:16.304Z,94441.55
2019-03-17T08:42:48.188Z,94437.72
2019-03-17T08:45:17.447Z,94439.42
2019-03-17T08:47:57.419Z,94436.14
2019-03-17T08:50:17.949Z,94434.63
2019-03-17T08:52:48.199Z,94431.02
2019-03-17T08:55:30.253Z,94431.13
2019-03-17T08:57:59.499Z,94423.64
2019-03-17T09:00:29.952Z,94423.02
2019-03-17T09:02:58.306Z,94414.27
2019-03-17T09:05:40.607Z,94411.51
2019-03-17T09:08:14.883Z,94409.46
2019-03-17T09:13:19.492Z,94410.80
2019-03-17T09:15:49.757Z,94412.81
2019-03-17T09:18:34.645Z,94411.41
2019-03-17T09:21:03.028Z,94405.90
2019-03-17T09:23:37.027Z,94393.14
2019-03-17T09:26:05.406Z,94398.45
2019-03-17T09:28:34.699Z,94411.14
2019-03-17T09:31:07.670Z,94399.02
2019-03-17T09:36:10.410Z,94376.63
2019-03-17T09:38:57.194Z,94390.30
2019-03-17T09:41:25.533Z,94387.89
2019-03-17T09:43:53.897Z,94386.45
2019-03-17T09:46:22.255Z,94381.70
2019-03-17T09:48:52.501Z,94382.61
2019-03-17T09:51:20.852Z,94369.91
2019-03-17T09:53:57.598Z,94371.91
2019-03-17T09:56:25.957Z,94372.09
2019-03-17T09:58:54.307Z,94365.34
2019-03-17T10:01:22.676Z,94389.94
2019-03-17T10:04:07.478Z,94371.91
2019-03-17T10:06:41.617Z,94376.00
2019-03-17T10:09:09.970Z,94361.14
2019-03-17T10:11:39.229Z,94364.78
2019-03-17T10:14:09.498Z,94355.38
2019-03-17T10:19:14.195Z,94351.81
2019-03-17T10:24:16.935Z,94347.45
2019-03-17T10:26:46.268Z,94341.55
2019-03-17T10:29:14.635Z,94347.34
2019-03-17T10:31:42.999Z,94347.65
2019-03-17T10:34:11.367Z,94349.29
2019-03-17T10:36:39.723Z,94351.14
2019-03-17T10:39:12.711Z,94335.68
2019-03-17T10:41:36.421Z,94341.77
2019-03-17T10:44:04.785Z,94337.36
2019-03-17T10:46:33.219Z,94329.07
2019-03-17T10:49:01.574Z,94334.36
2019-03-17T10:51:29.948Z,94333.06
2019-03-17T10:53:58.297Z,94327.22
2019-03-17T10:56:26.644Z,94327.55
2019-03-17T10:58:54.997Z,94333.96
2019-03-17T11:01:24.284Z,94335.33
2019-03-17T11:03:52.734Z,94309.53
2019-03-17T11:06:21.100Z,94341.87
2019-03-17T11:08:49.458Z,94340.98
2019-03-17T11:13:56.241Z,94334.52
2019-03-17T11:16:28.054Z,94320.86
2019-03-17T11:18:56.637Z,94325.61
2019-03-17T11:21:25.014Z,94336.87
2019-03-17T11:23:56.486Z,94334.66
2019-03-17T11:26:26.761Z,94320.39
2019-03-17T11:28:56.016Z,94322.67
2019-03-17T11:31:25.309Z,94323.94
2019-03-17T11:33:56.776Z,94334.20
2019-03-17T11:36:29.738Z,94315.63
2019-03-17T11:38:58.994Z,94320.58
2019-03-17T11:41:29.284Z,94323.77
2019-03-17T11:43:58.375Z,94318.55
2019-03-17T11:46:33.900Z,94321.05
2019-03-17T11:49:06.898Z,94303.85
2019-03-17T11:51:36.513Z,94305.55
2019-03-17T11:56:42.133Z,94309.89
2019-03-17T11:59:32.324Z,94290.69
2019-03-17T12:02:00.696Z,94290.97
2019-03-17T12:04:32.641Z,94281.63
2019-03-17T12:07:09.125Z,94274.89
2019-03-17T12:09:49.302Z,94289.46
2019-03-17T12:12:18.558Z,94272.64
2019-03-17T12:14:46.931Z,94275.57
2019-03-17T12:17:19.881Z,94265.59
2019-03-17T12:19:48.257Z,94268.72
2019-03-17T12:22:26.819Z,94266.91
2019-03-17T12:24:55.185Z,94265.75
2019-03-17T12:27:25.462Z,94281.06
2019-03-17T12:29:59.236Z,94260.42
2019-03-17T12:32:27.604Z,94261.19
2019-03-17T12:34:57.902Z,94255.02
2019-03-17T12:40:05.479Z,94241.66
2019-03-17T12:42:33.848Z,94235.62
2019-03-17T12:45:03.120Z,94246.28
2019-03-17T12:47:32.398Z,94243.27
2019-03-17T12:50:00.744Z,94244.25
2019-03-17T12:52:33.580Z,94242.80
2019-03-17T12:55:01.955Z,94254.05
2019-03-17T13:00:26.764Z,94230.37
2019-03-17T13:02:55.160Z,94229.58
2019-03-17T13:05:23.510Z,94223.07
2019-03-17T13:07:51.943Z,94216.83
2019-03-17T13:10:22.058Z,94215.95
2019-03-17T13:12:50.502Z,94217.99
2019-03-17T13:15:18.871Z,94214.70
2019-03-17T13:17:47.214Z,94211.30
2019-03-17T13:20:19.554Z,94214.95
2019-03-17T13:22:47.917Z,94228.73
2019-03-17T13:25:17.156Z,94207.44
2019-03-17T13:28:52.185Z,94215.00
2019-03-17T13:31:20.728Z,94214.63
2019-03-17T13:33:49.034Z,94211.06
2019-03-17T13:36:17.372Z,94217.16
2019-03-17T13:38:45.765Z,94218.67
2019-03-17T13:43:50.431Z,94217.14
2019-03-17T13:46:18.799Z,94233.59
2019-03-17T13:48:47.158Z,94230.09
2019-03-17T13:53:51.886Z,94230.19
2019-03-17T13:58:56.509Z,94249.84
2019-03-17T14:01:24.870Z,94232.82
2019-03-17T14:03:54.987Z,94236.66
2019-03-17T14:06:21.617Z,94224.59
2019-03-17T14:08:49.965Z,94241.38
2019-03-17T14:11:18.324Z,94233.84
2019-03-17T14:13:46.693Z,94250.23
2019-03-17T14:16:15.857Z,94240.97
2019-03-17T14:18:43.441Z,94234.75
2019-03-17T14:21:11.794Z,94235.28
2019-03-17T14:23:40.146Z,94228.14
2019-03-17T14:26:08.547Z,94220.10
2019-03-17T14:28:37.828Z,94243.83
2019-03-17T14:31:06.189Z,94238.20
2019-03-17T14:33:34.556Z,94222.44
2019-03-17T14:36:02.895Z,94230.80
2019-03-17T14:38:31.306Z,94236.13
2019-03-17T14:40:59.584Z,94223.87
2019-03-17T14:43:27.945Z,94249.59
2019-03-17T14:45:57.221Z,94244.89
2019-03-17T14:48:25.586Z,94249.50
2019-03-17T14:50:53.940Z,94246.53
2019-03-17T14:53:22.276Z,94238.48
2019-03-17T14:55:50.616Z,94274.12
2019-03-17T14:58:19.010Z,94292.98
2019-03-17T15:00:47.384Z,94295.91
2019-03-17T15:03:15.736Z,94259.67
2019-03-17T15:05:44.089Z,94237.14
2019-03-17T15:08:12.466Z,94259.61
2019-03-17T15:10:40.840Z,94258.62
2019-03-17T15:15:46.515Z,94259.18
2019-03-17T15:19:21.304Z,94266.56
2019-03-17T15:21:49.641Z,94273.69
2019-03-17T15:24:17.997Z,94272.38
2019-03-17T15:26:46.377Z,94285.73
2019-03-17T15:29:15.833Z,94269.63
2019-03-17T15:31:44.160Z,94272.09
2019-03-17T15:34:13.569Z,94274.34
2019-03-17T15:36:41.906Z,94284.20
2019-03-17T15:39:10.280Z,94300.11
2019-03-17T15:41:38.619Z,94288.41
2019-03-17T15:44:06.980Z,94297.34
2019-03-17T15:49:09.674Z,94305.72
2019-03-17T15:51:38.105Z,94301.67
2019-03-17T15:54:07.408Z,94295.48
2019-03-17T15:56:35.809Z,94303.80
2019-03-17T15:59:04.165Z,94306.06
2019-03-17T16:01:33.577Z,94302.74
2019-03-17T16:04:02.868Z,94305.16
2019-03-17T16:06:32.156Z,94313.27
2019-03-17T16:11:36.746Z,94319.37
2019-03-17T16:14:05.103Z,94316.66
2019-03-17T16:19:07.664Z,94317.49
2019-03-17T16:21:36.020Z,94324.90
2019-03-17T16:24:04.384Z,94320.09
2019-03-17T16:26:32.726Z,94327.26
2019-03-17T16:29:02.081Z,94327.38
2019-03-17T16:31:30.412Z,94336.80
2019-03-17T16:33:58.751Z,94337.94
2019-03-17T16:36:27.095Z,94344.17
2019-03-17T16:38:55.462Z,94385.60
2019-03-17T16:41:23.795Z,94414.25
2019-03-17T16:43:52.185Z,94420.30
2019-03-17T16:46:20.532Z,94420.92
2019-03-17T16:48:48.917Z,94448.97
2019-03-17T16:51:17.301Z,94450.97
2019-03-17T16:53:45.669Z,94457.20
2019-03-17T16:56:14.026Z,94471.70
2019-03-17T17:01:16.856Z,94503.03
2019-03-17T17:03:45.259Z,94526.78
2019-03-17T17:08:47.884Z,94562.90
2019-03-17T17:11:16.349Z,94577.69
2019-03-17T17:13:44.694Z,94594.35
2019-03-17T17:16:13.069Z,94622.78
2019-03-17T17:18:41.498Z,94626.09
2019-03-17T17:21:09.976Z,94625.06
2019-03-17T17:23:38.304Z,94648.00
2019-03-17T17:26:06.750Z,94656.36
2019-03-17T17:28:35.059Z,94667.75
2019-03-17T17:31:04.435Z,94664.23
2019-03-17T17:33:32.765Z,94679.07
2019-03-17T17:36:01.410Z,94682.44
2019-03-17T17:38:29.774Z,94694.87
2019-03-17T17:40:58.126Z,94704.69
2019-03-17T17:43:26.456Z,94710.88
2019-03-17T17:45:54.800Z,94718.36
2019-03-17T17:48:23.147Z,94729.92
2019-03-17T17:50:51.484Z,94726.92
2019-03-17T17:53:19.846Z,94728.80
2019-03-17T17:55:48.260Z,94740.63
2019-03-17T17:58:16.613Z,94743.97
2019-03-17T18:00:45.232Z,94753.67
2019-03-17T18:03:13.575Z,94764.05
2019-03-17T18:05:42.002Z,94767.89
2019-03-17T18:08:10.391Z,94777.56
2019-03-17T18:10:38.720Z,94783.84
2019-03-17T18:13:07.165Z,94793.64
2019-03-17T18:15:35.518Z,94796.20
2019-03-17T18:18:03.922Z,94813.80
2019-03-17T18:20:32.299Z,94809.36
2019-03-17T18:23:00.627Z,94816.49
2019-03-17T18:25:28.975Z,94830.91
2019-03-17T18:27:57.326Z,94837.48
2019-03-17T18:30:25.660Z,94860.60
2019-03-17T18:32:54.015Z,94871.36
2019-03-17T18:35:22.415Z,94865.63
2019-03-17T18:37:51.293Z,94870.70
2019-03-17T18:40:19.116Z,94884.67
2019-03-17T18:42:47.455Z,94889.97
2019-03-17T18:45:24.169Z,94903.16
2019-03-17T18:47:52.514Z,94912.77
2019-03-17T18:50:22.858Z,94911.57
2019-03-17T18:52:51.226Z,94925.34
2019-03-17T18:55:19.597Z,94932.36
2019-03-17T18:57:48.007Z,94940.64
2019-03-17T19:00:18.674Z,94938.63
2019-03-17T19:02:47.006Z,94940.26
2019-03-17T19:05:19.322Z,94942.28
2019-03-17T19:07:44.582Z,94942.03
2019-03-17T19:10:14.379Z,94949.79
2019-03-17T19:12:45.890Z,94953.92
2019-03-17T19:15:11.967Z,94966.42
2019-03-17T19:17:40.317Z,94973.39
2019-03-17T19:20:13.100Z,94967.42
2019-03-17T19:22:41.535Z,94985.66
2019-03-17T19:25:11.656Z,94979.61
2019-03-17T19:27:40.044Z,94989.90
2019-03-17T19:30:11.727Z,94986.80
2019-03-17T19:32:40.113Z,95005.88
2019-03-17T19:35:08.467Z,95012.06
2019-03-17T19:37:36.801Z,95009.25
2019-03-17T19:40:06.079Z,95009.67
2019-03-17T19:42:34.560Z,95013.28
2019-03-17T19:45:02.953Z,95035.80
2019-03-17T19:47:31.295Z,95033.55
2019-03-17T19:49:59.677Z,95042.17
2019-03-17T19:52:28.004Z,95043.05
2019-03-17T19:54:56.455Z,95048.69
2019-03-17T19:57:24.789Z,95049.41
2019-03-17T19:59:53.329Z,95054.95
2019-03-17T20:02:21.655Z,95050.92
2019-03-17T20:04:50.096Z,95049.21
2019-03-17T20:07:18.437Z,95054.05
2019-03-17T20:09:46.877Z,95053.08
2019-03-17T20:12:15.215Z,95058.86
2019-03-17T20:14:43.629Z,95058.05
2019-03-17T20:17:11.987Z,95058.42
2019-03-17T20:22:14.825Z,95064.11
2019-03-17T20:24:43.153Z,95069.53
2019-03-17T20:27:11.583Z,95077.09
2019-03-17T20:29:39.918Z,95069.48
2019-03-17T20:32:08.349Z,95086.69
2019-03-17T20:34:36.680Z,95085.63
2019-03-17T20:37:05.759Z,95084.94
2019-03-17T20:39:34.975Z,95097.26
2019-03-17T20:42:03.312Z,95082.05
2019-03-17T20:44:31.669Z,95109.81
2019-03-17T20:49:37.248Z,95111.51
2019-03-17T20:52:05.601Z,95113.55
2019-03-17T20:54:34.849Z,95127.27
2019-03-17T20:57:03.240Z,95118.11
2019-03-17T20:59:31.541Z,95125.77
2019-03-17T21:01:59.889Z,95118.75
2019-03-17T21:04:28.225Z,95109.91
2019-03-17T21:09:30.779Z,95117.61
2019-03-17T21:12:00.098Z,95122.75
2019-03-17T21:14:28.432Z,95138.98
2019-03-17T21:16:57.214Z,95123.61
2019-03-17T21:19:25.601Z,95141.04
2019-03-17T21:21:53.900Z,95133.32
2019-03-17T21:24:22.235Z,95135.79
2019-03-17T21:26:50.569Z,95134.77
2019-03-17T21:29:18.916Z,95150.77
2019-03-17T21:34:21.677Z,95162.09
2019-03-17T21:36:52.417Z,95158.72
2019-03-17T21:39:20.725Z,95153.20
2019-03-17T21:41:49.205Z,95161.61
2019-03-17T21:44:17.555Z,95165.20
2019-03-17T21:46:45.901Z,95161.07
2019-03-17T21:49:14.229Z,95170.13
2019-03-17T21:51:43.612Z,95176.87
2019-03-17T21:54:12.026Z,95181.43
2019-03-17T21:56:40.423Z,95184.86
2019-03-17T21:59:08.748Z,95189.25
2019-03-17T22:01:38.197Z,95188.55
2019-03-17T22:04:06.576Z,95196.70
2019-03-17T22:06:34.974Z,95206.98
2019-03-17T22:09:03.424Z,95201.89
2019-03-17T22:11:31.732Z,95207.09
2019-03-17T22:14:11.477Z,95208.28
2019-03-17T22:16:29.789Z,95206.02
2019-03-17T22:18:57.878Z,95199.05
2019-03-17T22:21:26.193Z,95203.11
2019-03-17T22:23:55.611Z,95214.42
2019-03-17T22:26:23.930Z,95213.94
2019-03-17T22:28:52.403Z,95210.87
2019-03-17T22:31:20.744Z,95213.35
2019-03-17T22:33:49.138Z,95219.03
2019-03-17T22:36:17.480Z,95227.59
2019-03-17T22:38:45.916Z,95229.53
2019-03-17T22:41:14.217Z,95233.91
2019-03-17T22:43:42.665Z,95238.36
2019-03-17T22:46:11.077Z,95229.20
2019-03-17T22:48:39.534Z,95224.22
2019-03-17T22:51:08.984Z,95236.98
2019-03-17T22:53:37.320Z,95244.33
2019-03-17T22:56:05.685Z,95249.45
2019-03-17T22:58:34.026Z,95234.08
2019-03-17T23:01:02.542Z,95245.92
2019-03-17T23:03:30.956Z,95255.92
2019-03-17T23:05:59.382Z,95245.59
2019-03-17T23:08:28.653Z,95233.24
2019-03-17T23:10:57.027Z,95230.41
2019-03-17T23:13:25.376Z,95221.67
2019-03-17T23:15:53.724Z,95217.45
2019-03-17T23:18:22.789Z,95225.34
2019-03-17T23:20:51.128Z,95226.53
2019-03-17T23:23:19.478Z,95236.25
2019-03-17T23:25:47.986Z,95230.58
2019-03-17T23:28:16.321Z,95232.02
2019-03-17T23:30:44.722Z,95233.70
2019-03-17T23:33:13.073Z,95250.03
2019-03-17T23:35:41.423Z,95255.05
2019-03-17T23:38:09.776Z,95252.58
2019-03-17T23:40:38.143Z,95256.88
2019-03-17T23:43:06.480Z,95261.68
2019-03-17T23:45:34.810Z,95269.27
2019-03-17T23:48:03.189Z,95261.42
2019-03-17T23:50:31.537Z,95254.77
2019-03-17T23:52:59.872Z,95245.86
2019-03-17T23:55:28.247Z,95242.11
2019-03-17T23:57:56.597Z,95242.69
